sensor_id;sensor_type;location;lat;lon;timestamp;pressure;altitude;pressure_sealevel;temperature;humidity
79378;BME280;68959;53.132;17.984;2023-04-15T00:00:17;100279.86;;;9.52;66.99
79378;BME280;68959;53.132;17.984;2023-04-15T00:03:04;100283.92;;;9.47;67.42
79378;BME280;68959;53.132;17.984;2023-04-15T00:05:31;100289.77;;;9.45;67.68
79378;BME280;68959;53.132;17.984;2023-04-15T00:07:59;100287.30;;;9.45;67.94
79378;BME280;68959;53.132;17.984;2023-04-15T00:10:27;100288.41;;;9.45;67.92
79378;BME280;68959;53.132;17.984;2023-04-15T00:12:54;100292.33;;;9.44;67.86
79378;BME280;68959;53.132;17.984;2023-04-15T00:15:20;100290.40;;;9.41;67.95
79378;BME280;68959;53.132;17.984;2023-04-15T00:17:49;100287.02;;;9.38;68.06
79378;BME280;68959;53.132;17.984;2023-04-15T00:20:17;100286.75;;;9.36;68.07
79378;BME280;68959;53.132;17.984;2023-04-15T00:22:44;100281.94;;;9.34;68.31
79378;BME280;68959;53.132;17.984;2023-04-15T00:25:11;100276.48;;;9.34;68.69
79378;BME280;68959;53.132;17.984;2023-04-15T00:27:38;100280.28;;;9.32;68.38
79378;BME280;68959;53.132;17.984;2023-04-15T00:30:05;100276.69;;;9.29;68.61
79378;BME280;68959;53.132;17.984;2023-04-15T00:32:32;100273.31;;;9.26;68.51
79378;BME280;68959;53.132;17.984;2023-04-15T00:34:59;100275.19;;;9.23;69.00
79378;BME280;68959;53.132;17.984;2023-04-15T00:37:26;100275.79;;;9.20;68.90
79378;BME280;68959;53.132;17.984;2023-04-15T00:39:53;100276.17;;;9.17;68.91
79378;BME280;68959;53.132;17.984;2023-04-15T00:42:19;100277.55;;;9.17;69.06
79378;BME280;68959;53.132;17.984;2023-04-15T00:44:47;100277.50;;;9.17;69.25
79378;BME280;68959;53.132;17.984;2023-04-15T00:47:15;100278.66;;;9.16;69.27
79378;BME280;68959;53.132;17.984;2023-04-15T00:49:42;100282.35;;;9.15;69.55
79378;BME280;68959;53.132;17.984;2023-04-15T00:52:09;100276.79;;;9.11;69.61
79378;BME280;68959;53.132;17.984;2023-04-15T00:54:36;100278.48;;;9.09;69.65
79378;BME280;68959;53.132;17.984;2023-04-15T00:57:04;100282.06;;;9.06;69.84
79378;BME280;68959;53.132;17.984;2023-04-15T00:59:32;100278.25;;;9.03;70.04
79378;BME280;68959;53.132;17.984;2023-04-15T01:01:59;100278.02;;;9.04;69.90
79378;BME280;68959;53.132;17.984;2023-04-15T01:04:26;100275.55;;;9.03;69.88
79378;BME280;68959;53.132;17.984;2023-04-15T01:06:53;100278.52;;;9.03;70.03
79378;BME280;68959;53.132;17.984;2023-04-15T01:09:19;100280.40;;;9.01;70.26
79378;BME280;68959;53.132;17.984;2023-04-15T01:11:46;100286.30;;;9.01;70.49
79378;BME280;68959;53.132;17.984;2023-04-15T01:14:14;100281.81;;;8.99;70.59
79378;BME280;68959;53.132;17.984;2023-04-15T01:16:40;100281.33;;;8.99;70.39
79378;BME280;68959;53.132;17.984;2023-04-15T01:19:09;100281.34;;;8.98;70.47
79378;BME280;68959;53.132;17.984;2023-04-15T01:21:36;100282.77;;;8.98;70.58
79378;BME280;68959;53.132;17.984;2023-04-15T01:24:08;100285.02;;;9.00;70.83
79378;BME280;68959;53.132;17.984;2023-04-15T01:26:37;100285.64;;;9.03;70.64
79378;BME280;68959;53.132;17.984;2023-04-15T01:29:07;100282.51;;;9.06;70.74
79378;BME280;68959;53.132;17.984;2023-04-15T01:31:33;100278.20;;;9.07;71.10
79378;BME280;68959;53.132;17.984;2023-04-15T01:34:00;100283.17;;;9.10;70.75
79378;BME280;68959;53.132;17.984;2023-04-15T01:36:27;100280.80;;;9.08;70.86
79378;BME280;68959;53.132;17.984;2023-04-15T01:38:56;100282.13;;;9.09;70.53
79378;BME280;68959;53.132;17.984;2023-04-15T01:41:27;100279.98;;;9.09;70.71
79378;BME280;68959;53.132;17.984;2023-04-15T01:43:54;100279.26;;;9.10;70.60
79378;BME280;68959;53.132;17.984;2023-04-15T01:46:21;100276.10;;;9.09;70.75
79378;BME280;68959;53.132;17.984;2023-04-15T01:48:48;100276.71;;;9.06;70.56
79378;BME280;68959;53.132;17.984;2023-04-15T01:51:15;100277.38;;;9.04;70.71
79378;BME280;68959;53.132;17.984;2023-04-15T01:53:42;100274.17;;;9.01;70.96
79378;BME280;68959;53.132;17.984;2023-04-15T01:56:08;100271.17;;;8.99;71.64
79378;BME280;68959;53.132;17.984;2023-04-15T01:58:35;100274.50;;;9.01;71.16
79378;BME280;68959;53.132;17.984;2023-04-15T02:01:02;100271.58;;;9.02;71.27
79378;BME280;68959;53.132;17.984;2023-04-15T02:03:31;100271.42;;;9.01;71.16
79378;BME280;68959;53.132;17.984;2023-04-15T02:05:58;100273.23;;;9.00;71.21
79378;BME280;68959;53.132;17.984;2023-04-15T02:08:25;100274.48;;;9.00;71.29
79378;BME280;68959;53.132;17.984;2023-04-15T02:10:52;100275.04;;;8.99;71.18
79378;BME280;68959;53.132;17.984;2023-04-15T02:13:19;100279.84;;;8.98;71.68
79378;BME280;68959;53.132;17.984;2023-04-15T02:15:49;100279.11;;;8.99;71.74
79378;BME280;68959;53.132;17.984;2023-04-15T02:18:18;100278.14;;;9.01;71.60
79378;BME280;68959;53.132;17.984;2023-04-15T02:20:45;100273.84;;;9.02;71.88
79378;BME280;68959;53.132;17.984;2023-04-15T02:23:12;100277.09;;;9.05;71.48
79378;BME280;68959;53.132;17.984;2023-04-15T02:25:39;100275.83;;;9.06;71.77
79378;BME280;68959;53.132;17.984;2023-04-15T02:28:06;100273.91;;;9.08;71.70
79378;BME280;68959;53.132;17.984;2023-04-15T02:30:33;100268.56;;;9.12;71.71
79378;BME280;68959;53.132;17.984;2023-04-15T02:33:01;100279.21;;;9.19;71.19
79378;BME280;68959;53.132;17.984;2023-04-15T02:35:28;100276.30;;;9.26;71.31
79378;BME280;68959;53.132;17.984;2023-04-15T02:37:55;100277.08;;;9.32;70.84
79378;BME280;68959;53.132;17.984;2023-04-15T02:40:22;100273.06;;;9.37;71.19
79378;BME280;68959;53.132;17.984;2023-04-15T02:42:48;100281.01;;;9.42;70.68
79378;BME280;68959;53.132;17.984;2023-04-15T02:45:15;100281.23;;;9.46;70.75
79378;BME280;68959;53.132;17.984;2023-04-15T02:47:43;100278.47;;;9.52;70.23
79378;BME280;68959;53.132;17.984;2023-04-15T02:50:12;100280.80;;;9.57;70.07
79378;BME280;68959;53.132;17.984;2023-04-15T02:52:40;100280.96;;;9.62;69.95
79378;BME280;68959;53.132;17.984;2023-04-15T02:55:08;100280.95;;;9.65;69.90
79378;BME280;68959;53.132;17.984;2023-04-15T02:57:35;100278.15;;;9.69;70.01
79378;BME280;68959;53.132;17.984;2023-04-15T03:00:08;100280.63;;;9.69;69.82
79378;BME280;68959;53.132;17.984;2023-04-15T03:02:39;100276.94;;;9.71;69.92
79378;BME280;68959;53.132;17.984;2023-04-15T03:05:10;100277.70;;;9.75;69.71
79378;BME280;68959;53.132;17.984;2023-04-15T03:07:37;100276.20;;;9.77;69.65
79378;BME280;68959;53.132;17.984;2023-04-15T03:10:06;100279.35;;;9.78;69.70
79378;BME280;68959;53.132;17.984;2023-04-15T03:12:34;100281.17;;;9.78;69.59
79378;BME280;68959;53.132;17.984;2023-04-15T03:15:01;100279.89;;;9.79;69.79
79378;BME280;68959;53.132;17.984;2023-04-15T03:17:33;100281.89;;;9.78;69.50
79378;BME280;68959;53.132;17.984;2023-04-15T03:20:04;100284.16;;;9.79;69.84
79378;BME280;68959;53.132;17.984;2023-04-15T03:22:31;100282.60;;;9.82;69.50
79378;BME280;68959;53.132;17.984;2023-04-15T03:24:58;100284.44;;;9.83;69.68
79378;BME280;68959;53.132;17.984;2023-04-15T03:27:25;100282.83;;;9.84;69.60
79378;BME280;68959;53.132;17.984;2023-04-15T03:29:52;100280.28;;;9.85;69.48
79378;BME280;68959;53.132;17.984;2023-04-15T03:32:21;100282.23;;;9.84;69.43
79378;BME280;68959;53.132;17.984;2023-04-15T03:34:48;100282.94;;;9.86;69.29
79378;BME280;68959;53.132;17.984;2023-04-15T03:37:15;100287.80;;;9.88;69.61
79378;BME280;68959;53.132;17.984;2023-04-15T03:39:41;100285.80;;;9.89;69.45
79378;BME280;68959;53.132;17.984;2023-04-15T03:42:08;100284.54;;;9.90;69.59
79378;BME280;68959;53.132;17.984;2023-04-15T03:44:34;100287.67;;;9.91;69.18
79378;BME280;68959;53.132;17.984;2023-04-15T03:47:01;100287.73;;;9.93;69.35
79378;BME280;68959;53.132;17.984;2023-04-15T03:49:28;100287.07;;;9.91;69.16
79378;BME280;68959;53.132;17.984;2023-04-15T03:51:54;100287.23;;;9.92;69.29
79378;BME280;68959;53.132;17.984;2023-04-15T03:54:21;100285.35;;;9.92;69.57
79378;BME280;68959;53.132;17.984;2023-04-15T03:56:48;100287.73;;;9.94;69.29
79378;BME280;68959;53.132;17.984;2023-04-15T03:59:14;100287.06;;;9.95;69.37
79378;BME280;68959;53.132;17.984;2023-04-15T04:01:42;100289.73;;;9.97;69.12
79378;BME280;68959;53.132;17.984;2023-04-15T04:04:08;100292.30;;;9.99;69.45
79378;BME280;68959;53.132;17.984;2023-04-15T04:06:35;100292.92;;;9.99;69.40
79378;BME280;68959;53.132;17.984;2023-04-15T04:09:02;100294.96;;;9.99;69.60
79378;BME280;68959;53.132;17.984;2023-04-15T04:11:28;100294.02;;;9.98;69.25
79378;BME280;68959;53.132;17.984;2023-04-15T04:13:55;100290.16;;;9.98;69.13
79378;BME280;68959;53.132;17.984;2023-04-15T04:16:21;100292.25;;;10.01;69.17
79378;BME280;68959;53.132;17.984;2023-04-15T04:18:48;100294.23;;;10.03;69.38
79378;BME280;68959;53.132;17.984;2023-04-15T04:21:15;100295.84;;;10.04;69.14
79378;BME280;68959;53.132;17.984;2023-04-15T04:23:42;100297.16;;;10.05;69.23
79378;BME280;68959;53.132;17.984;2023-04-15T04:26:09;100297.10;;;10.06;69.10
79378;BME280;68959;53.132;17.984;2023-04-15T04:28:35;100299.59;;;10.06;68.98
79378;BME280;68959;53.132;17.984;2023-04-15T04:31:02;100297.77;;;10.08;69.00
79378;BME280;68959;53.132;17.984;2023-04-15T04:33:29;100296.92;;;10.10;69.14
79378;BME280;68959;53.132;17.984;2023-04-15T04:35:55;100297.71;;;10.13;69.05
79378;BME280;68959;53.132;17.984;2023-04-15T04:38:22;100299.33;;;10.14;68.92
79378;BME280;68959;53.132;17.984;2023-04-15T04:40:49;100298.56;;;10.14;68.78
79378;BME280;68959;53.132;17.984;2023-04-15T04:43:15;100296.20;;;10.13;69.11
79378;BME280;68959;53.132;17.984;2023-04-15T04:45:42;100300.61;;;10.14;69.16
79378;BME280;68959;53.132;17.984;2023-04-15T04:48:08;100299.02;;;10.15;68.83
79378;BME280;68959;53.132;17.984;2023-04-15T04:50:36;100296.24;;;10.16;69.19
79378;BME280;68959;53.132;17.984;2023-04-15T04:53:02;100297.44;;;10.18;69.03
79378;BME280;68959;53.132;17.984;2023-04-15T04:55:29;100297.16;;;10.20;69.05
79378;BME280;68959;53.132;17.984;2023-04-15T04:57:57;100300.42;;;10.20;68.91
79378;BME280;68959;53.132;17.984;2023-04-15T05:00:23;100296.61;;;10.20;68.88
79378;BME280;68959;53.132;17.984;2023-04-15T05:02:50;100300.48;;;10.22;68.97
79378;BME280;68959;53.132;17.984;2023-04-15T05:05:17;100300.97;;;10.24;68.87
79378;BME280;68959;53.132;17.984;2023-04-15T05:07:44;100301.91;;;10.26;68.63
79378;BME280;68959;53.132;17.984;2023-04-15T05:10:10;100296.70;;;10.27;68.95
79378;BME280;68959;53.132;17.984;2023-04-15T05:12:37;100303.17;;;10.28;68.85
79378;BME280;68959;53.132;17.984;2023-04-15T05:15:05;100306.09;;;10.28;68.91
79378;BME280;68959;53.132;17.984;2023-04-15T05:17:32;100302.73;;;10.27;68.99
79378;BME280;68959;53.132;17.984;2023-04-15T05:20:01;100302.05;;;10.29;68.98
79378;BME280;68959;53.132;17.984;2023-04-15T05:22:28;100306.43;;;10.29;68.74
79378;BME280;68959;53.132;17.984;2023-04-15T05:24:55;100306.65;;;10.30;69.25
79378;BME280;68959;53.132;17.984;2023-04-15T05:27:21;100304.26;;;10.31;68.82
79378;BME280;68959;53.132;17.984;2023-04-15T05:29:49;100310.63;;;10.32;69.15
79378;BME280;68959;53.132;17.984;2023-04-15T05:32:16;100306.81;;;10.32;69.07
79378;BME280;68959;53.132;17.984;2023-04-15T05:34:43;100308.02;;;10.30;69.11
79378;BME280;68959;53.132;17.984;2023-04-15T05:37:09;100312.50;;;10.30;69.04
79378;BME280;68959;53.132;17.984;2023-04-15T05:39:36;100313.66;;;10.30;69.22
79378;BME280;68959;53.132;17.984;2023-04-15T05:42:03;100311.84;;;10.29;69.03
79378;BME280;68959;53.132;17.984;2023-04-15T05:44:31;100317.81;;;10.29;69.35
79378;BME280;68959;53.132;17.984;2023-04-15T05:46:58;100314.71;;;10.29;69.64
79378;BME280;68959;53.132;17.984;2023-04-15T05:49:25;100311.79;;;10.26;69.87
79378;BME280;68959;53.132;17.984;2023-04-15T05:51:51;100315.48;;;10.25;69.78
79378;BME280;68959;53.132;17.984;2023-04-15T05:54:18;100314.83;;;10.23;70.21
79378;BME280;68959;53.132;17.984;2023-04-15T05:56:44;100314.11;;;10.21;70.15
79378;BME280;68959;53.132;17.984;2023-04-15T05:59:11;100316.55;;;10.21;70.35
79378;BME280;68959;53.132;17.984;2023-04-15T06:01:37;100321.80;;;10.21;70.86
79378;BME280;68959;53.132;17.984;2023-04-15T06:04:05;100325.35;;;10.18;70.65
79378;BME280;68959;53.132;17.984;2023-04-15T06:06:32;100326.23;;;10.17;71.53
79378;BME280;68959;53.132;17.984;2023-04-15T06:08:58;100329.32;;;10.13;71.79
79378;BME280;68959;53.132;17.984;2023-04-15T06:11:25;100330.24;;;10.09;72.58
79378;BME280;68959;53.132;17.984;2023-04-15T06:13:52;100333.17;;;10.06;72.90
79378;BME280;68959;53.132;17.984;2023-04-15T06:16:19;100333.34;;;10.00;73.85
79378;BME280;68959;53.132;17.984;2023-04-15T06:18:45;100338.44;;;9.97;73.52
79378;BME280;68959;53.132;17.984;2023-04-15T06:21:12;100339.70;;;9.93;74.55
79378;BME280;68959;53.132;17.984;2023-04-15T06:23:39;100343.58;;;9.88;75.71
79378;BME280;68959;53.132;17.984;2023-04-15T06:26:09;100345.61;;;9.76;77.58
79378;BME280;68959;53.132;17.984;2023-04-15T06:28:35;100346.86;;;9.65;77.73
79378;BME280;68959;53.132;17.984;2023-04-15T06:31:02;100349.63;;;9.54;78.25
79378;BME280;68959;53.132;17.984;2023-04-15T06:33:28;100342.77;;;9.46;78.99
79378;BME280;68959;53.132;17.984;2023-04-15T06:35:55;100348.64;;;9.37;79.82
79378;BME280;68959;53.132;17.984;2023-04-15T06:38:22;100347.22;;;9.32;78.95
79378;BME280;68959;53.132;17.984;2023-04-15T06:40:48;100351.73;;;9.33;78.69
79378;BME280;68959;53.132;17.984;2023-04-15T06:43:15;100351.02;;;9.34;78.67
79378;BME280;68959;53.132;17.984;2023-04-15T06:45:41;100356.11;;;9.39;78.62
79378;BME280;68959;53.132;17.984;2023-04-15T06:48:08;100352.31;;;9.42;78.26
79378;BME280;68959;53.132;17.984;2023-04-15T06:50:35;100355.95;;;9.47;78.68
79378;BME280;68959;53.132;17.984;2023-04-15T06:53:01;100359.21;;;9.47;78.65
79378;BME280;68959;53.132;17.984;2023-04-15T06:55:28;100356.89;;;9.47;78.23
79378;BME280;68959;53.132;17.984;2023-04-15T06:57:56;100358.83;;;9.45;78.80
79378;BME280;68959;53.132;17.984;2023-04-15T07:00:23;100363.36;;;9.46;79.47
79378;BME280;68959;53.132;17.984;2023-04-15T07:02:50;100362.08;;;9.45;79.27
79378;BME280;68959;53.132;17.984;2023-04-15T07:05:18;100367.83;;;9.46;79.03
79378;BME280;68959;53.132;17.984;2023-04-15T07:07:45;100365.45;;;9.50;78.90
79378;BME280;68959;53.132;17.984;2023-04-15T07:10:12;100374.02;;;9.51;79.91
79378;BME280;68959;53.132;17.984;2023-04-15T07:12:40;100374.27;;;9.47;79.61
79378;BME280;68959;53.132;17.984;2023-04-15T07:15:07;100374.73;;;9.46;79.55
79378;BME280;68959;53.132;17.984;2023-04-15T07:17:34;100375.77;;;9.48;79.51
79378;BME280;68959;53.132;17.984;2023-04-15T07:20:01;100379.58;;;9.47;79.41
79378;BME280;68959;53.132;17.984;2023-04-15T07:22:27;100375.73;;;9.49;79.45
79378;BME280;68959;53.132;17.984;2023-04-15T07:24:54;100380.68;;;9.49;80.18
79378;BME280;68959;53.132;17.984;2023-04-15T07:27:21;100381.19;;;9.49;80.02
79378;BME280;68959;53.132;17.984;2023-04-15T07:29:47;100382.35;;;9.50;79.77
79378;BME280;68959;53.132;17.984;2023-04-15T07:32:14;100383.63;;;9.52;79.62
79378;BME280;68959;53.132;17.984;2023-04-15T07:34:41;100383.95;;;9.55;80.22
79378;BME280;68959;53.132;17.984;2023-04-15T07:37:08;100388.32;;;9.59;79.91
79378;BME280;68959;53.132;17.984;2023-04-15T07:39:35;100387.73;;;9.61;80.10
79378;BME280;68959;53.132;17.984;2023-04-15T07:42:02;100386.02;;;9.62;79.37
79378;BME280;68959;53.132;17.984;2023-04-15T07:44:30;100386.56;;;9.61;80.48
79378;BME280;68959;53.132;17.984;2023-04-15T07:46:57;100383.29;;;9.57;81.18
79378;BME280;68959;53.132;17.984;2023-04-15T07:49:23;100392.56;;;9.54;81.33
79378;BME280;68959;53.132;17.984;2023-04-15T07:51:50;100400.23;;;9.50;81.24
79378;BME280;68959;53.132;17.984;2023-04-15T07:54:16;100399.02;;;9.48;81.22
79378;BME280;68959;53.132;17.984;2023-04-15T07:56:43;100397.23;;;9.47;82.01
79378;BME280;68959;53.132;17.984;2023-04-15T07:59:10;100394.09;;;9.45;81.29
79378;BME280;68959;53.132;17.984;2023-04-15T08:01:37;100398.71;;;9.44;81.38
79378;BME280;68959;53.132;17.984;2023-04-15T08:04:04;100400.00;;;9.47;81.30
79378;BME280;68959;53.132;17.984;2023-04-15T08:06:30;100403.15;;;9.51;80.96
79378;BME280;68959;53.132;17.984;2023-04-15T08:08:58;100402.23;;;9.58;80.67
79378;BME280;68959;53.132;17.984;2023-04-15T08:11:26;100405.77;;;9.64;80.90
79378;BME280;68959;53.132;17.984;2023-04-15T08:13:53;100406.83;;;9.66;80.83
79378;BME280;68959;53.132;17.984;2023-04-15T08:18:48;100402.64;;;9.75;80.18
79378;BME280;68959;53.132;17.984;2023-04-15T08:21:17;100405.81;;;9.84;80.67
79378;BME280;68959;53.132;17.984;2023-04-15T08:23:45;100410.57;;;9.92;80.20
79378;BME280;68959;53.132;17.984;2023-04-15T08:26:12;100411.84;;;9.96;79.94
79378;BME280;68959;53.132;17.984;2023-04-15T08:28:39;100414.38;;;9.99;79.80
79378;BME280;68959;53.132;17.984;2023-04-15T08:31:07;100413.27;;;10.03;79.31
79378;BME280;68959;53.132;17.984;2023-04-15T08:33:34;100413.16;;;10.06;79.37
79378;BME280;68959;53.132;17.984;2023-04-15T08:36:01;100416.70;;;10.11;79.25
79378;BME280;68959;53.132;17.984;2023-04-15T08:38:28;100415.41;;;10.15;79.24
79378;BME280;68959;53.132;17.984;2023-04-15T08:40:57;100418.62;;;10.19;79.07
79378;BME280;68959;53.132;17.984;2023-04-15T08:43:33;100415.52;;;10.25;78.87
79378;BME280;68959;53.132;17.984;2023-04-15T08:46:00;100416.61;;;10.28;78.83
79378;BME280;68959;53.132;17.984;2023-04-15T08:48:28;100422.76;;;10.29;78.88
79378;BME280;68959;53.132;17.984;2023-04-15T08:50:55;100421.42;;;10.28;78.82
79378;BME280;68959;53.132;17.984;2023-04-15T08:53:23;100422.96;;;10.25;78.97
79378;BME280;68959;53.132;17.984;2023-04-15T08:55:51;100417.50;;;10.25;78.66
79378;BME280;68959;53.132;17.984;2023-04-15T08:58:18;100421.98;;;10.28;78.67
79378;BME280;68959;53.132;17.984;2023-04-15T09:00:45;100425.95;;;10.28;78.74
79378;BME280;68959;53.132;17.984;2023-04-15T09:03:12;100428.56;;;10.26;78.73
79378;BME280;68959;53.132;17.984;2023-04-15T09:05:39;100423.31;;;10.24;79.09
79378;BME280;68959;53.132;17.984;2023-04-15T09:08:05;100424.59;;;10.23;79.05
79378;BME280;68959;53.132;17.984;2023-04-15T09:10:32;100428.89;;;10.23;79.23
79378;BME280;68959;53.132;17.984;2023-04-15T09:12:59;100429.23;;;10.22;79.13
79378;BME280;68959;53.132;17.984;2023-04-15T09:15:27;100428.39;;;10.19;79.13
79378;BME280;68959;53.132;17.984;2023-04-15T09:17:55;100429.06;;;10.19;79.45
79378;BME280;68959;53.132;17.984;2023-04-15T09:20:22;100429.33;;;10.21;79.13
79378;BME280;68959;53.132;17.984;2023-04-15T09:22:49;100430.38;;;10.25;79.12
79378;BME280;68959;53.132;17.984;2023-04-15T09:27:52;100428.16;;;10.30;79.13
79378;BME280;68959;53.132;17.984;2023-04-15T09:30:19;100427.02;;;10.31;79.22
79378;BME280;68959;53.132;17.984;2023-04-15T09:32:54;100425.57;;;10.30;79.00
79378;BME280;68959;53.132;17.984;2023-04-15T09:35:24;100426.11;;;10.39;78.66
79378;BME280;68959;53.132;17.984;2023-04-15T09:37:52;100425.55;;;10.49;78.94
79378;BME280;68959;53.132;17.984;2023-04-15T09:40:38;100423.55;;;10.59;78.52
79378;BME280;68959;53.132;17.984;2023-04-15T09:43:06;100429.83;;;10.72;78.25
79378;BME280;68959;53.132;17.984;2023-04-15T09:45:35;100427.43;;;10.78;78.35
79378;BME280;68959;53.132;17.984;2023-04-15T09:48:18;100427.48;;;10.85;78.06
79378;BME280;68959;53.132;17.984;2023-04-15T09:50:49;100426.84;;;10.93;77.45
79378;BME280;68959;53.132;17.984;2023-04-15T09:53:17;100431.17;;;11.05;77.37
79378;BME280;68959;53.132;17.984;2023-04-15T09:55:52;100428.27;;;11.10;77.19
79378;BME280;68959;53.132;17.984;2023-04-15T09:58:21;100431.59;;;11.11;77.47
79378;BME280;68959;53.132;17.984;2023-04-15T10:00:50;100432.64;;;11.10;77.10
79378;BME280;68959;53.132;17.984;2023-04-15T10:03:19;100435.63;;;11.11;76.47
79378;BME280;68959;53.132;17.984;2023-04-15T10:05:48;100430.15;;;11.13;76.42
79378;BME280;68959;53.132;17.984;2023-04-15T10:08:21;100436.27;;;11.18;76.42
79378;BME280;68959;53.132;17.984;2023-04-15T10:10:50;100432.19;;;11.27;76.31
79378;BME280;68959;53.132;17.984;2023-04-15T10:13:20;100428.05;;;11.40;76.06
79378;BME280;68959;53.132;17.984;2023-04-15T10:15:53;100432.50;;;11.64;75.90
79378;BME280;68959;53.132;17.984;2023-04-15T10:18:25;100426.28;;;11.70;75.47
79378;BME280;68959;53.132;17.984;2023-04-15T10:20:52;100433.29;;;11.75;75.26
79378;BME280;68959;53.132;17.984;2023-04-15T10:23:21;100430.84;;;11.77;74.97
79378;BME280;68959;53.132;17.984;2023-04-15T10:25:51;100435.15;;;11.65;75.35
79378;BME280;68959;53.132;17.984;2023-04-15T10:28:18;100430.10;;;11.47;75.49
79378;BME280;68959;53.132;17.984;2023-04-15T10:30:45;100434.70;;;11.36;75.75
79378;BME280;68959;53.132;17.984;2023-04-15T10:33:13;100435.45;;;11.25;76.43
79378;BME280;68959;53.132;17.984;2023-04-15T10:35:42;100442.59;;;11.18;76.23
79378;BME280;68959;53.132;17.984;2023-04-15T10:43:51;100442.48;;;10.99;77.25
79378;BME280;68959;53.132;17.984;2023-04-15T10:46:40;100442.55;;;10.94;77.01
79378;BME280;68959;53.132;17.984;2023-04-15T10:49:12;100445.42;;;10.92;77.31
79378;BME280;68959;53.132;17.984;2023-04-15T10:51:45;100442.73;;;10.85;77.73
79378;BME280;68959;53.132;17.984;2023-04-15T10:54:14;100442.40;;;10.85;77.43
79378;BME280;68959;53.132;17.984;2023-04-15T10:56:43;100443.27;;;10.92;77.39
79378;BME280;68959;53.132;17.984;2023-04-15T10:59:10;100445.16;;;11.07;77.22
79378;BME280;68959;53.132;17.984;2023-04-15T11:01:57;100449.13;;;11.24;76.91
79378;BME280;68959;53.132;17.984;2023-04-15T11:12:47;100456.34;;;11.59;76.35
79378;BME280;68959;53.132;17.984;2023-04-15T11:15:29;100454.35;;;11.47;76.17
79378;BME280;68959;53.132;17.984;2023-04-15T11:18:24;100455.69;;;11.32;76.49
79378;BME280;68959;53.132;17.984;2023-04-15T11:20:56;100458.81;;;11.13;76.96
79378;BME280;68959;53.132;17.984;2023-04-15T11:23:39;100461.20;;;11.10;77.56
79378;BME280;68959;53.132;17.984;2023-04-15T11:26:09;100466.00;;;11.14;77.58
79378;BME280;68959;53.132;17.984;2023-04-15T11:28:44;100463.90;;;11.12;77.82
79378;BME280;68959;53.132;17.984;2023-04-15T11:31:15;100467.04;;;11.03;77.83
79378;BME280;68959;53.132;17.984;2023-04-15T11:33:53;100462.23;;;10.97;78.06
79378;BME280;68959;53.132;17.984;2023-04-15T11:36:20;100466.34;;;10.94;78.19
79378;BME280;68959;53.132;17.984;2023-04-15T11:38:49;100467.73;;;10.91;78.34
79378;BME280;68959;53.132;17.984;2023-04-15T11:41:19;100467.73;;;10.88;78.60
79378;BME280;68959;53.132;17.984;2023-04-15T11:43:47;100474.44;;;10.84;78.22
79378;BME280;68959;53.132;17.984;2023-04-15T11:46:13;100469.23;;;10.85;78.64
79378;BME280;68959;53.132;17.984;2023-04-15T11:48:43;100470.45;;;10.89;78.42
79378;BME280;68959;53.132;17.984;2023-04-15T11:51:11;100466.23;;;10.92;78.70
79378;BME280;68959;53.132;17.984;2023-04-15T11:53:48;100470.48;;;10.95;78.24
79378;BME280;68959;53.132;17.984;2023-04-15T11:56:22;100472.05;;;11.08;78.15
79378;BME280;68959;53.132;17.984;2023-04-15T11:58:55;100474.44;;;11.23;77.82
79378;BME280;68959;53.132;17.984;2023-04-15T12:01:37;100472.55;;;11.24;77.42
79378;BME280;68959;53.132;17.984;2023-04-15T12:04:15;100479.77;;;11.18;77.61
79378;BME280;68959;53.132;17.984;2023-04-15T12:06:47;100480.31;;;11.19;78.01
79378;BME280;68959;53.132;17.984;2023-04-15T12:09:15;100483.03;;;11.20;77.83
79378;BME280;68959;53.132;17.984;2023-04-15T12:11:44;100483.88;;;11.17;77.48
79378;BME280;68959;53.132;17.984;2023-04-15T12:14:12;100482.76;;;11.17;77.60
79378;BME280;68959;53.132;17.984;2023-04-15T12:16:46;100483.85;;;11.22;77.55
79378;BME280;68959;53.132;17.984;2023-04-15T12:19:25;100486.50;;;11.23;77.05
79378;BME280;68959;53.132;17.984;2023-04-15T12:24:31;100490.50;;;11.32;77.13
79378;BME280;68959;53.132;17.984;2023-04-15T12:27:04;100487.02;;;11.31;77.16
79378;BME280;68959;53.132;17.984;2023-04-15T12:29:32;100486.21;;;11.30;77.24
79378;BME280;68959;53.132;17.984;2023-04-15T12:32:17;100490.12;;;11.32;77.36
79378;BME280;68959;53.132;17.984;2023-04-15T12:34:50;100493.80;;;11.44;76.93
79378;BME280;68959;53.132;17.984;2023-04-15T12:37:17;100495.37;;;11.48;77.12
79378;BME280;68959;53.132;17.984;2023-04-15T12:39:47;100495.21;;;11.49;77.03
79378;BME280;68959;53.132;17.984;2023-04-15T12:42:17;100495.94;;;11.47;77.05
79378;BME280;68959;53.132;17.984;2023-04-15T12:44:44;100497.23;;;11.42;76.92
79378;BME280;68959;53.132;17.984;2023-04-15T12:47:11;100495.27;;;11.32;76.95
79378;BME280;68959;53.132;17.984;2023-04-15T12:49:38;100496.79;;;11.26;77.50
79378;BME280;68959;53.132;17.984;2023-04-15T12:52:05;100498.67;;;11.23;77.57
79378;BME280;68959;53.132;17.984;2023-04-15T12:54:31;100496.86;;;11.21;77.78
79378;BME280;68959;53.132;17.984;2023-04-15T12:56:58;100499.63;;;11.20;77.62
79378;BME280;68959;53.132;17.984;2023-04-15T12:59:26;100496.18;;;11.23;77.82
79378;BME280;68959;53.132;17.984;2023-04-15T13:01:53;100501.14;;;11.30;77.98
79378;BME280;68959;53.132;17.984;2023-04-15T13:04:20;100505.68;;;11.45;77.65
79378;BME280;68959;53.132;17.984;2023-04-15T13:06:48;100504.06;;;11.49;77.54
79378;BME280;68959;53.132;17.984;2023-04-15T13:09:14;100511.48;;;11.49;77.40
79378;BME280;68959;53.132;17.984;2023-04-15T13:11:41;100505.31;;;11.55;77.63